Time;durP1;ratioP1;P1;durP2;ratioP2;P2;SDS_P1;SDS_P2;PMS_P1;PMS_P2;Temp;Humidity;BMP_temperature;BMP_pressure;BME280_temperature;BME280_humidity;BME280_pressure;Samples;Min_cycle;Max_cycle;Signal;HPM_P1;HPM_P2
2021/08/28 00:00:16;;;;;;;;;;;25.10;56.80;;;;;;495070;240;1064;-43
2021/08/28 00:02:19;;;;;;;;;;;25.00;56.70;;;;;;495158;240;1177;-43
2021/08/28 00:04:19;;;;;;;;;;;25.10;56.80;;;;;;495509;240;2151;-43
2021/08/28 00:06:20;;;;;;;;;;;25.10;56.80;;;;;;495147;240;1632;-43
2021/08/28 00:08:22;;;;;;;;;;;25.10;56.80;;;;;;495258;240;1276;-43
2021/08/28 00:10:23;;;;;;;;;;;25.10;56.80;;;;;;495571;240;1124;-43
2021/08/28 00:12:24;;;;;;;;;;;25.10;56.80;;;;;;494938;240;2190;-43
2021/08/28 00:14:26;;;;;;;;;;;25.10;56.80;;;;;;495573;240;1036;-43
2021/08/28 00:16:27;;;;;;;;;;;25.10;56.80;;;;;;494976;240;1225;-43
2021/08/28 00:18:28;;;;;;;;;;;25.10;56.70;;;;;;495094;240;1071;-43
2021/08/28 00:20:30;;;;;;;;;;;25.10;56.70;;;;;;495426;240;1266;-43
2021/08/28 00:22:31;;;;;;;;;;;25.10;56.70;;;;;;495295;240;1269;-43
2021/08/28 00:24:32;;;;;;;;;;;25.10;56.70;;;;;;495382;240;1070;-43
2021/08/28 00:26:34;;;;;;;;;;;25.10;56.70;;;;;;495445;240;1156;-43
2021/08/28 00:28:35;;;;;;;;;;;25.10;56.70;;;;;;495299;240;1209;-43
2021/08/28 00:30:36;;;;;;;;;;;25.10;56.70;;;;;;495444;240;1324;-43
2021/08/28 00:32:38;;;;;;;;;;;25.10;56.70;;;;;;495405;240;2134;-43
2021/08/28 00:34:39;;;;;;;;;;;25.10;56.80;;;;;;495477;240;1085;-43
2021/08/28 00:36:40;;;;;;;;;;;25.10;56.70;;;;;;495014;240;1309;-43
2021/08/28 00:38:41;;;;;;;;;;;25.10;56.70;;;;;;495246;240;1189;-43
2021/08/28 00:40:43;;;;;;;;;;;25.10;56.70;;;;;;495109;240;1223;-43
2021/08/28 00:42:44;;;;;;;;;;;25.10;56.70;;;;;;495060;240;1337;-43
2021/08/28 00:44:45;;;;;;;;;;;25.10;56.70;;;;;;495362;240;1052;-43
2021/08/28 00:46:47;;;;;;;;;;;25.10;56.70;;;;;;495074;240;1461;-42
2021/08/28 00:48:48;;;;;;;;;;;25.10;56.70;;;;;;495563;240;1125;-43
2021/08/28 00:50:49;;;;;;;;;;;25.10;56.70;;;;;;495313;240;1177;-43
2021/08/28 00:52:51;;;;;;;;;;;25.10;56.70;;;;;;495099;240;2127;-43
2021/08/28 00:54:52;;;;;;;;;;;25.10;56.70;;;;;;495072;240;1041;-43
2021/08/28 00:56:53;;;;;;;;;;;25.10;56.70;;;;;;495051;240;1480;-43
2021/08/28 00:58:55;;;;;;;;;;;25.10;56.60;;;;;;495178;240;1101;-43
2021/08/28 01:00:56;;;;;;;;;;;25.10;56.70;;;;;;495249;240;1160;-43
2021/08/28 01:02:57;;;;;;;;;;;25.10;56.70;;;;;;495052;240;1425;-43
2021/08/28 01:04:59;;;;;;;;;;;25.10;56.70;;;;;;495558;240;1069;-43
2021/08/28 01:07:00;;;;;;;;;;;25.10;56.70;;;;;;495184;240;1314;-43
2021/08/28 01:09:01;;;;;;;;;;;25.10;56.60;;;;;;495184;240;1177;-43
2021/08/28 01:11:03;;;;;;;;;;;25.10;56.60;;;;;;495309;239;1232;-43
2021/08/28 01:13:04;;;;;;;;;;;25.10;56.60;;;;;;495028;240;2131;-43
2021/08/28 01:15:05;;;;;;;;;;;25.10;56.70;;;;;;495183;240;1100;-43
2021/08/28 01:17:07;;;;;;;;;;;25.10;56.60;;;;;;495054;240;1234;-43
2021/08/28 01:19:08;;;;;;;;;;;25.10;56.70;;;;;;495324;240;1087;-43
2021/08/28 01:21:09;;;;;;;;;;;25.10;56.60;;;;;;495527;240;1225;-43
2021/08/28 01:23:10;;;;;;;;;;;25.10;56.60;;;;;;495040;240;1138;-43
2021/08/28 01:25:12;;;;;;;;;;;25.10;56.70;;;;;;495152;240;1019;-43
2021/08/28 01:27:13;;;;;;;;;;;25.10;56.70;;;;;;495010;240;1316;-43
2021/08/28 01:29:14;;;;;;;;;;;25.10;56.60;;;;;;495429;240;1120;-43
2021/08/28 01:31:16;;;;;;;;;;;25.20;56.70;;;;;;495076;240;1414;-43
2021/08/28 01:33:17;;;;;;;;;;;25.10;56.60;;;;;;495031;240;2193;-43
2021/08/28 01:35:18;;;;;;;;;;;25.10;56.60;;;;;;495203;240;1173;-43
2021/08/28 01:37:20;;;;;;;;;;;25.10;56.60;;;;;;495181;240;1267;-43
2021/08/28 01:39:21;;;;;;;;;;;25.10;56.60;;;;;;495366;240;1088;-43
2021/08/28 01:41:22;;;;;;;;;;;25.10;56.60;;;;;;495183;240;1160;-43
2021/08/28 01:43:24;;;;;;;;;;;25.10;56.60;;;;;;495350;240;1350;-43
2021/08/28 01:45:26;;;;;;;;;;;25.10;56.60;;;;;;495336;240;1088;-43
2021/08/28 01:47:28;;;;;;;;;;;25.10;56.60;;;;;;495268;240;1201;-43
2021/08/28 01:49:28;;;;;;;;;;;25.10;56.60;;;;;;495023;241;2257;-43
2021/08/28 01:51:29;;;;;;;;;;;25.10;56.60;;;;;;495102;240;1234;-43
2021/08/28 01:53:30;;;;;;;;;;;25.10;56.60;;;;;;495109;240;2182;-43
2021/08/28 01:55:32;;;;;;;;;;;25.20;56.60;;;;;;495217;240;1066;-43
2021/08/28 01:57:33;;;;;;;;;;;25.20;56.70;;;;;;495114;240;1178;-43
2021/08/28 01:59:34;;;;;;;;;;;25.20;56.70;;;;;;495065;240;1047;-43
2021/08/28 02:01:36;;;;;;;;;;;25.20;56.60;;;;;;495212;240;1143;-43
2021/08/28 02:03:37;;;;;;;;;;;25.20;56.60;;;;;;495496;240;1094;-43
2021/08/28 02:05:38;;;;;;;;;;;25.20;56.70;;;;;;495563;240;1096;-43
2021/08/28 02:07:39;;;;;;;;;;;25.10;56.60;;;;;;495328;240;1334;-43
2021/08/28 02:09:41;;;;;;;;;;;25.20;56.70;;;;;;495563;240;1061;-43
2021/08/28 02:11:43;;;;;;;;;;;25.10;56.60;;;;;;495493;240;1276;-43
2021/08/28 02:13:44;;;;;;;;;;;25.10;56.70;;;;;;495178;241;2130;-43
2021/08/28 02:15:45;;;;;;;;;;;25.20;56.70;;;;;;495284;240;1079;-43
2021/08/28 02:17:46;;;;;;;;;;;25.20;56.70;;;;;;495353;240;1207;-43
2021/08/28 02:19:48;;;;;;;;;;;25.20;56.60;;;;;;495337;240;1034;-43
2021/08/28 02:21:49;;;;;;;;;;;25.20;56.70;;;;;;495168;240;1285;-43
2021/08/28 02:23:50;;;;;;;;;;;25.10;56.50;;;;;;495149;240;1223;-43
2021/08/28 02:25:51;;;;;;;;;;;25.20;56.70;;;;;;495446;240;1272;-43
2021/08/28 02:27:53;;;;;;;;;;;25.20;56.70;;;;;;495017;240;1341;-43
2021/08/28 02:29:54;;;;;;;;;;;25.20;56.70;;;;;;495056;240;1136;-43
2021/08/28 02:31:58;;;;;;;;;;;25.20;56.70;;;;;;495460;240;1322;-43
2021/08/28 02:33:57;;;;;;;;;;;25.20;56.60;;;;;;495279;241;2357;-43
2021/08/28 02:35:59;;;;;;;;;;;25.20;56.60;;;;;;495114;240;1355;-43
2021/08/28 02:38:00;;;;;;;;;;;25.20;56.60;;;;;;495070;240;1205;-43
2021/08/28 02:40:01;;;;;;;;;;;25.20;56.60;;;;;;495121;240;1057;-43
2021/08/28 02:42:03;;;;;;;;;;;25.20;56.60;;;;;;495094;240;1346;-43
2021/08/28 02:44:04;;;;;;;;;;;25.20;56.60;;;;;;495113;240;1198;-43
2021/08/28 02:46:05;;;;;;;;;;;25.20;56.60;;;;;;495025;240;1528;-43
2021/08/28 02:48:07;;;;;;;;;;;25.20;56.60;;;;;;495106;240;1185;-43
2021/08/28 02:50:08;;;;;;;;;;;25.20;56.60;;;;;;495149;240;1051;-43
2021/08/28 02:52:09;;;;;;;;;;;25.20;56.60;;;;;;495056;240;2185;-43
2021/08/28 02:54:10;;;;;;;;;;;25.20;56.70;;;;;;495187;240;1296;-43
2021/08/28 02:56:12;;;;;;;;;;;25.20;56.60;;;;;;495338;240;1068;-43
2021/08/28 02:58:13;;;;;;;;;;;25.20;56.60;;;;;;495112;240;1057;-43
2021/08/28 03:00:15;;;;;;;;;;;25.20;56.60;;;;;;495351;240;1048;-43
2021/08/28 03:02:16;;;;;;;;;;;25.20;56.60;;;;;;495312;241;2209;-43
2021/08/28 03:04:17;;;;;;;;;;;25.20;56.60;;;;;;495537;240;1030;-43
2021/08/28 03:06:19;;;;;;;;;;;25.20;56.60;;;;;;495588;240;1252;-43
2021/08/28 03:08:20;;;;;;;;;;;25.20;56.60;;;;;;495083;237;1266;-43
2021/08/28 03:10:21;;;;;;;;;;;25.20;56.60;;;;;;495203;240;1060;-43
2021/08/28 03:12:23;;;;;;;;;;;25.20;56.60;;;;;;495043;240;2190;-43
2021/08/28 03:14:24;;;;;;;;;;;25.20;56.70;;;;;;495227;240;1103;-43
2021/08/28 03:16:25;;;;;;;;;;;25.20;56.70;;;;;;495476;240;1317;-43
2021/08/28 03:18:26;;;;;;;;;;;25.20;56.60;;;;;;495130;240;1056;-43
2021/08/28 03:20:28;;;;;;;;;;;25.20;56.60;;;;;;495257;240;1030;-43
2021/08/28 03:22:29;;;;;;;;;;;25.20;56.70;;;;;;495496;240;1270;-43
2021/08/28 03:24:30;;;;;;;;;;;25.20;56.60;;;;;;495168;240;1142;-43
2021/08/28 03:26:32;;;;;;;;;;;25.20;56.60;;;;;;495158;240;1869;-43
2021/08/28 03:28:33;;;;;;;;;;;25.20;56.60;;;;;;495275;240;1288;-43
2021/08/28 03:30:34;;;;;;;;;;;25.20;56.60;;;;;;495421;239;1137;-43
2021/08/28 03:32:36;;;;;;;;;;;25.20;56.60;;;;;;495454;240;2123;-43
2021/08/28 03:34:37;;;;;;;;;;;25.20;56.60;;;;;;495093;240;1079;-43
2021/08/28 03:36:38;;;;;;;;;;;25.20;56.60;;;;;;494995;240;1516;-43
2021/08/28 03:38:40;;;;;;;;;;;25.20;56.50;;;;;;495059;240;1231;-43
2021/08/28 03:40:41;;;;;;;;;;;25.20;56.60;;;;;;495443;240;1265;-43
2021/08/28 03:42:42;;;;;;;;;;;25.20;56.90;;;;;;495243;240;1250;-43
2021/08/28 03:44:44;;;;;;;;;;;25.20;57.00;;;;;;495568;240;1154;-43
2021/08/28 03:46:45;;;;;;;;;;;25.10;57.10;;;;;;495522;240;1370;-43
2021/08/28 03:48:46;;;;;;;;;;;25.00;57.30;;;;;;495350;240;1263;-43
2021/08/28 03:50:47;;;;;;;;;;;25.00;57.40;;;;;;495090;240;1227;-43
2021/08/28 03:52:49;;;;;;;;;;;24.90;57.50;;;;;;495178;240;2187;-43
2021/08/28 03:54:50;;;;;;;;;;;24.90;57.60;;;;;;495101;240;1180;-43
2021/08/28 03:56:51;;;;;;;;;;;24.80;57.80;;;;;;495355;240;1460;-43
2021/08/28 03:58:53;;;;;;;;;;;24.80;57.80;;;;;;495339;240;1234;-43
2021/08/28 04:00:54;;;;;;;;;;;24.80;57.90;;;;;;495436;240;1282;-43
2021/08/28 04:02:55;;;;;;;;;;;24.80;57.90;;;;;;495483;240;1147;-43
2021/08/28 04:04:57;;;;;;;;;;;24.70;57.90;;;;;;495122;240;1049;-43
2021/08/28 04:06:58;;;;;;;;;;;24.70;57.90;;;;;;495381;240;1219;-43
2021/08/28 04:08:59;;;;;;;;;;;24.60;58.00;;;;;;495407;240;1195;-43
2021/08/28 04:11:01;;;;;;;;;;;24.60;58.00;;;;;;495039;240;1442;-43
2021/08/28 04:13:02;;;;;;;;;;;24.60;58.10;;;;;;495021;240;2139;-43
2021/08/28 04:15:03;;;;;;;;;;;24.60;58.20;;;;;;495270;240;1161;-43
2021/08/28 04:17:05;;;;;;;;;;;24.60;58.20;;;;;;495044;240;1293;-43
2021/08/28 04:19:06;;;;;;;;;;;24.50;58.20;;;;;;495099;240;1044;-43
2021/08/28 04:21:07;;;;;;;;;;;24.50;58.20;;;;;;495227;240;1242;-43
2021/08/28 04:23:09;;;;;;;;;;;24.50;58.20;;;;;;495093;240;1043;-43
2021/08/28 04:25:10;;;;;;;;;;;24.50;58.20;;;;;;495181;240;1217;-43
2021/08/28 04:27:11;;;;;;;;;;;24.50;58.30;;;;;;495074;240;1035;-43
2021/08/28 04:29:13;;;;;;;;;;;24.40;58.20;;;;;;495333;240;1157;-43
2021/08/28 04:31:14;;;;;;;;;;;24.40;58.10;;;;;;495417;240;1070;-43
2021/08/28 04:33:15;;;;;;;;;;;24.40;58.20;;;;;;495226;240;2151;-43
2021/08/28 04:35:17;;;;;;;;;;;24.40;58.20;;;;;;495310;240;1030;-43
2021/08/28 04:37:18;;;;;;;;;;;24.30;58.20;;;;;;495354;240;1028;-43
2021/08/28 04:39:20;;;;;;;;;;;24.30;58.20;;;;;;495094;240;1450;-43
2021/08/28 04:41:21;;;;;;;;;;;24.30;58.20;;;;;;495137;240;2061;-43
2021/08/28 04:43:22;;;;;;;;;;;24.30;58.30;;;;;;495543;240;1037;-43
2021/08/28 04:45:23;;;;;;;;;;;24.30;58.30;;;;;;495480;240;1242;-43
2021/08/28 04:47:25;;;;;;;;;;;24.30;58.20;;;;;;495097;240;1331;-43
2021/08/28 04:49:26;;;;;;;;;;;24.30;58.30;;;;;;495126;240;1097;-43
2021/08/28 04:51:27;;;;;;;;;;;24.20;58.30;;;;;;495502;240;1161;-43
2021/08/28 04:53:29;;;;;;;;;;;24.20;58.40;;;;;;495501;240;2139;-43
2021/08/28 04:55:30;;;;;;;;;;;24.20;58.40;;;;;;495059;240;1393;-43
2021/08/28 04:57:31;;;;;;;;;;;24.20;58.40;;;;;;495169;240;1086;-43
2021/08/28 04:59:33;;;;;;;;;;;24.20;58.40;;;;;;495568;240;1077;-43
2021/08/28 05:01:34;;;;;;;;;;;24.20;58.40;;;;;;495235;240;1309;-43
2021/08/28 05:03:35;;;;;;;;;;;24.20;58.40;;;;;;495229;240;1040;-43
2021/08/28 05:05:37;;;;;;;;;;;24.20;58.40;;;;;;495518;240;1054;-43
2021/08/28 05:07:38;;;;;;;;;;;24.10;58.40;;;;;;495333;240;1270;-43
2021/08/28 05:09:39;;;;;;;;;;;24.10;58.40;;;;;;495397;240;1204;-43
2021/08/28 05:11:41;;;;;;;;;;;24.10;58.40;;;;;;495067;240;1189;-43
2021/08/28 05:13:42;;;;;;;;;;;24.10;58.30;;;;;;495358;240;2135;-43
2021/08/28 05:15:43;;;;;;;;;;;24.10;58.30;;;;;;495544;240;1126;-43
2021/08/28 05:17:45;;;;;;;;;;;24.10;58.30;;;;;;495282;240;1234;-43
2021/08/28 05:19:46;;;;;;;;;;;24.10;58.40;;;;;;495394;240;1314;-43
2021/08/28 05:21:47;;;;;;;;;;;24.10;58.40;;;;;;495032;240;1400;-43
2021/08/28 05:23:49;;;;;;;;;;;24.10;58.40;;;;;;495077;240;1113;-43
2021/08/28 05:25:50;;;;;;;;;;;24.10;58.40;;;;;;495178;240;1382;-43
2021/08/28 05:27:51;;;;;;;;;;;24.00;58.40;;;;;;495513;240;1207;-43
2021/08/28 05:29:53;;;;;;;;;;;24.10;58.40;;;;;;495141;240;986;-43
2021/08/28 05:31:54;;;;;;;;;;;24.00;58.30;;;;;;495490;240;1166;-43
2021/08/28 05:33:55;;;;;;;;;;;24.00;58.40;;;;;;495587;240;2135;-43
2021/08/28 05:35:57;;;;;;;;;;;24.00;58.40;;;;;;495573;239;1217;-43
2021/08/28 05:37:58;;;;;;;;;;;24.00;58.50;;;;;;495582;240;1287;-43
2021/08/28 05:39:59;;;;;;;;;;;24.00;58.40;;;;;;495177;240;1150;-43
2021/08/28 05:42:00;;;;;;;;;;;24.00;58.40;;;;;;495110;240;1383;-43
2021/08/28 05:44:02;;;;;;;;;;;24.00;58.40;;;;;;495162;240;1039;-43
2021/08/28 05:46:05;;;;;;;;;;;24.00;58.40;;;;;;495485;240;1127;-43
2021/08/28 05:48:04;;;;;;;;;;;24.00;58.40;;;;;;494991;241;1994;-43
2021/08/28 05:50:06;;;;;;;;;;;24.00;58.30;;;;;;495135;240;1069;-43
2021/08/28 05:52:07;;;;;;;;;;;24.00;58.40;;;;;;495233;240;1312;-43
2021/08/28 05:54:08;;;;;;;;;;;23.90;58.40;;;;;;495295;240;2206;-43
2021/08/28 05:56:10;;;;;;;;;;;23.90;58.40;;;;;;495155;240;1370;-43
2021/08/28 05:58:11;;;;;;;;;;;23.90;58.40;;;;;;495143;240;1297;-43
2021/08/28 06:00:12;;;;;;;;;;;23.90;58.40;;;;;;495319;240;1025;-43
2021/08/28 06:02:14;;;;;;;;;;;23.90;58.40;;;;;;495203;240;1340;-43
2021/08/28 06:04:15;;;;;;;;;;;23.90;58.30;;;;;;495122;240;1046;-43
2021/08/28 06:06:16;;;;;;;;;;;23.90;58.30;;;;;;495521;240;1204;-43
2021/08/28 06:08:18;;;;;;;;;;;23.90;58.20;;;;;;495236;240;1347;-43
2021/08/28 06:10:19;;;;;;;;;;;23.90;58.30;;;;;;495454;240;1145;-43
2021/08/28 06:12:20;;;;;;;;;;;23.80;58.40;;;;;;495148;240;1653;-43
2021/08/28 06:14:22;;;;;;;;;;;23.80;58.40;;;;;;495100;240;2199;-43
2021/08/28 06:16:23;;;;;;;;;;;23.80;58.40;;;;;;495386;240;1453;-43
2021/08/28 06:18:24;;;;;;;;;;;23.80;58.30;;;;;;495090;240;1218;-43
2021/08/28 06:20:25;;;;;;;;;;;23.80;58.30;;;;;;495273;240;1037;-43
2021/08/28 06:22:27;;;;;;;;;;;23.80;58.40;;;;;;495011;240;1247;-42
2021/08/28 06:24:28;;;;;;;;;;;23.80;58.40;;;;;;495437;240;1228;-42
2021/08/28 06:26:29;;;;;;;;;;;23.80;58.30;;;;;;495092;240;1260;-43
2021/08/28 06:28:31;;;;;;;;;;;23.80;58.30;;;;;;495223;240;1306;-43
2021/08/28 06:30:32;;;;;;;;;;;23.80;58.30;;;;;;495053;240;1111;-43
2021/08/28 06:32:33;;;;;;;;;;;23.80;58.40;;;;;;495059;240;1190;-43
2021/08/28 06:34:35;;;;;;;;;;;23.80;58.30;;;;;;495197;240;2127;-43
2021/08/28 06:36:36;;;;;;;;;;;23.80;58.40;;;;;;494874;240;1232;-42
2021/08/28 06:38:37;;;;;;;;;;;23.80;58.30;;;;;;495219;240;1291;-43
2021/08/28 06:40:39;;;;;;;;;;;23.70;58.30;;;;;;495392;240;1251;-43
2021/08/28 06:42:40;;;;;;;;;;;23.70;58.30;;;;;;495472;240;1311;-43
2021/08/28 06:44:42;;;;;;;;;;;23.70;58.30;;;;;;495258;240;1202;-43
2021/08/28 06:46:43;;;;;;;;;;;23.70;58.30;;;;;;495011;240;1120;-43
2021/08/28 06:48:45;;;;;;;;;;;23.80;58.20;;;;;;495198;240;1165;-43
2021/08/28 06:50:46;;;;;;;;;;;23.70;58.30;;;;;;495323;240;1383;-43
2021/08/28 06:52:47;;;;;;;;;;;23.70;58.30;;;;;;495020;240;1161;-43
2021/08/28 06:54:49;;;;;;;;;;;23.70;58.20;;;;;;495001;240;2154;-43
2021/08/28 06:56:50;;;;;;;;;;;23.70;58.30;;;;;;495063;240;1269;-43
2021/08/28 06:58:51;;;;;;;;;;;23.70;58.30;;;;;;495446;240;1032;-43
2021/08/28 07:00:54;;;;;;;;;;;23.70;58.30;;;;;;495011;240;1789;-43
2021/08/28 07:02:54;;;;;;;;;;;23.70;58.30;;;;;;495131;240;1398;-43
2021/08/28 07:04:55;;;;;;;;;;;23.70;58.20;;;;;;495114;240;1053;-43
2021/08/28 07:06:57;;;;;;;;;;;23.70;58.30;;;;;;495333;240;1360;-42
2021/08/28 07:08:58;;;;;;;;;;;23.70;58.20;;;;;;495298;240;1039;-43
2021/08/28 07:10:59;;;;;;;;;;;23.70;58.30;;;;;;495440;240;1228;-43
2021/08/28 07:13:01;;;;;;;;;;;23.70;58.20;;;;;;494980;240;1207;-43
2021/08/28 07:15:02;;;;;;;;;;;23.70;58.30;;;;;;495381;240;2126;-43
2021/08/28 07:17:03;;;;;;;;;;;23.70;58.30;;;;;;495110;240;1381;-43
2021/08/28 07:19:05;;;;;;;;;;;23.60;58.30;;;;;;495108;240;1084;-43
2021/08/28 07:21:06;;;;;;;;;;;23.60;58.20;;;;;;495025;240;1043;-43
2021/08/28 07:23:07;;;;;;;;;;;23.60;58.30;;;;;;495079;240;1160;-43
2021/08/28 07:25:09;;;;;;;;;;;23.60;58.20;;;;;;495442;240;1198;-43
2021/08/28 07:27:10;;;;;;;;;;;23.60;58.30;;;;;;495095;240;1313;-43
2021/08/28 07:29:11;;;;;;;;;;;23.60;58.30;;;;;;495490;240;1068;-43
2021/08/28 07:31:12;;;;;;;;;;;23.60;58.20;;;;;;495228;240;1509;-43
2021/08/28 07:33:14;;;;;;;;;;;23.60;58.30;;;;;;494927;240;1289;-43
2021/08/28 07:35:15;;;;;;;;;;;23.60;58.20;;;;;;494866;240;2178;-43
2021/08/28 07:37:16;;;;;;;;;;;23.60;58.20;;;;;;495068;240;1229;-43
2021/08/28 07:39:18;;;;;;;;;;;23.60;58.20;;;;;;494971;240;1148;-43
2021/08/28 07:41:19;;;;;;;;;;;23.60;58.20;;;;;;495151;240;1323;-43
2021/08/28 07:43:20;;;;;;;;;;;23.60;58.20;;;;;;495138;240;2283;-43
2021/08/28 07:45:22;;;;;;;;;;;23.60;58.20;;;;;;495238;240;1057;-43
2021/08/28 07:47:23;;;;;;;;;;;23.60;58.20;;;;;;495026;240;1178;-43
2021/08/28 07:49:24;;;;;;;;;;;23.50;58.20;;;;;;495361;240;1086;-42
2021/08/28 07:51:26;;;;;;;;;;;23.60;58.20;;;;;;495292;240;1357;-43
2021/08/28 07:53:27;;;;;;;;;;;23.60;58.10;;;;;;495178;240;1061;-43
2021/08/28 07:55:28;;;;;;;;;;;23.60;58.10;;;;;;495291;240;2190;-43
2021/08/28 07:57:30;;;;;;;;;;;23.60;58.20;;;;;;495152;240;1248;-43
2021/08/28 07:59:31;;;;;;;;;;;23.60;58.20;;;;;;495031;240;1165;-43
2021/08/28 08:01:32;;;;;;;;;;;23.60;58.10;;;;;;495124;240;1394;-43
2021/08/28 08:03:34;;;;;;;;;;;23.60;58.20;;;;;;495183;240;1155;-43
2021/08/28 08:05:35;;;;;;;;;;;23.50;58.10;;;;;;495032;240;1249;-43
2021/08/28 08:07:37;;;;;;;;;;;23.60;58.10;;;;;;495117;240;1464;-43
2021/08/28 08:09:38;;;;;;;;;;;23.50;58.10;;;;;;495262;240;1071;-43
2021/08/28 08:11:39;;;;;;;;;;;23.50;58.10;;;;;;495079;240;1325;-43
2021/08/28 08:13:41;;;;;;;;;;;23.50;58.10;;;;;;495122;240;1055;-43
2021/08/28 08:15:42;;;;;;;;;;;23.50;58.20;;;;;;494971;240;2134;-43
2021/08/28 08:17:43;;;;;;;;;;;23.50;58.20;;;;;;495448;240;1217;-43
2021/08/28 08:19:45;;;;;;;;;;;23.40;58.20;;;;;;495501;240;1065;-43
2021/08/28 08:21:46;;;;;;;;;;;23.40;58.20;;;;;;495311;240;1319;-43
2021/08/28 08:23:47;;;;;;;;;;;23.50;58.20;;;;;;495052;240;1082;-43
2021/08/28 08:25:49;;;;;;;;;;;23.40;58.20;;;;;;495095;240;1142;-43
2021/08/28 08:27:50;;;;;;;;;;;23.50;58.10;;;;;;495174;240;1186;-43
2021/08/28 08:29:51;;;;;;;;;;;23.50;58.10;;;;;;495046;240;1095;-43
2021/08/28 08:31:54;;;;;;;;;;;23.40;58.20;;;;;;495263;240;1050;-43
2021/08/28 08:33:55;;;;;;;;;;;23.40;58.20;;;;;;495467;240;1042;-43
2021/08/28 08:35:56;;;;;;;;;;;23.40;58.20;;;;;;494992;240;2118;-43
2021/08/28 08:37:58;;;;;;;;;;;23.40;58.10;;;;;;495036;240;1261;-43
2021/08/28 08:39:59;;;;;;;;;;;23.40;58.10;;;;;;495460;240;1170;-43
2021/08/28 08:42:00;;;;;;;;;;;23.40;58.10;;;;;;495031;240;1149;-43
2021/08/28 08:44:01;;;;;;;;;;;23.40;58.00;;;;;;495108;240;1075;-43
2021/08/28 08:46:03;;;;;;;;;;;23.40;58.00;;;;;;495049;239;1598;-43
2021/08/28 08:48:04;;;;;;;;;;;23.40;58.10;;;;;;495033;240;1223;-43
2021/08/28 08:50:05;;;;;;;;;;;23.40;58.00;;;;;;495159;240;1202;-43
2021/08/28 08:52:07;;;;;;;;;;;23.40;58.00;;;;;;495078;240;1157;-43
2021/08/28 08:54:08;;;;;;;;;;;23.40;58.00;;;;;;495534;240;1075;-43
2021/08/28 08:56:09;;;;;;;;;;;23.50;57.80;;;;;;495407;240;2201;-43
2021/08/28 08:58:11;;;;;;;;;;;23.60;57.50;;;;;;495065;240;1177;-43
2021/08/28 09:00:12;;;;;;;;;;;23.70;57.30;;;;;;495085;240;1055;-43
2021/08/28 09:02:13;;;;;;;;;;;23.70;57.20;;;;;;495029;240;1142;-43
2021/08/28 09:04:15;;;;;;;;;;;23.80;57.10;;;;;;495000;240;1104;-43
2021/08/28 09:06:16;;;;;;;;;;;23.80;57.00;;;;;;495069;240;1221;-43
2021/08/28 09:08:17;;;;;;;;;;;23.90;57.00;;;;;;495061;240;1164;-43
2021/08/28 09:10:19;;;;;;;;;;;23.90;56.90;;;;;;495019;240;1035;-43
2021/08/28 09:12:20;;;;;;;;;;;24.00;56.90;;;;;;495000;240;1628;-43
2021/08/28 09:14:21;;;;;;;;;;;24.00;56.80;;;;;;495082;240;2190;-43
2021/08/28 09:16:23;;;;;;;;;;;24.00;56.70;;;;;;495010;237;1098;-43
2021/08/28 09:18:24;;;;;;;;;;;24.00;56.60;;;;;;495067;240;1206;-43
2021/08/28 09:20:25;;;;;;;;;;;24.10;56.60;;;;;;495477;240;1087;-43
2021/08/28 09:22:26;;;;;;;;;;;24.10;56.50;;;;;;495194;240;1268;-43
2021/08/28 09:24:28;;;;;;;;;;;24.10;56.50;;;;;;495429;240;1142;-43
2021/08/28 09:26:29;;;;;;;;;;;24.10;56.40;;;;;;494999;240;1586;-43
2021/08/28 09:28:30;;;;;;;;;;;24.10;56.30;;;;;;495025;240;1284;-43
2021/08/28 09:30:32;;;;;;;;;;;24.20;56.30;;;;;;495470;240;1167;-43
2021/08/28 09:32:33;;;;;;;;;;;24.20;56.30;;;;;;495016;236;1287;-43
2021/08/28 09:34:34;;;;;;;;;;;24.20;56.20;;;;;;495181;240;2197;-43
2021/08/28 09:36:36;;;;;;;;;;;24.20;56.20;;;;;;494974;240;1483;-43
2021/08/28 09:38:37;;;;;;;;;;;24.20;56.10;;;;;;495504;240;1247;-43
2021/08/28 09:40:38;;;;;;;;;;;24.30;56.10;;;;;;495274;240;1095;-43
2021/08/28 09:42:40;;;;;;;;;;;24.20;56.10;;;;;;495060;240;1314;-43
2021/08/28 09:44:41;;;;;;;;;;;24.30;56.10;;;;;;495110;240;1169;-43
2021/08/28 09:46:42;;;;;;;;;;;24.30;56.00;;;;;;495160;240;1261;-43
2021/08/28 09:48:44;;;;;;;;;;;24.30;56.00;;;;;;495397;240;1205;-43
2021/08/28 09:50:45;;;;;;;;;;;24.30;56.00;;;;;;495035;240;1380;-43
2021/08/28 09:52:47;;;;;;;;;;;24.30;56.00;;;;;;495075;240;1544;-43
2021/08/28 09:54:48;;;;;;;;;;;24.40;56.00;;;;;;495137;240;2191;-43
2021/08/28 09:56:49;;;;;;;;;;;24.40;56.00;;;;;;494979;240;1537;-43
2021/08/28 09:58:50;;;;;;;;;;;24.40;55.90;;;;;;495200;240;1155;-43
2021/08/28 10:00:52;;;;;;;;;;;24.40;55.90;;;;;;495164;240;1507;-43
2021/08/28 10:02:53;;;;;;;;;;;24.40;55.90;;;;;;495025;240;1148;-43
2021/08/28 10:04:54;;;;;;;;;;;24.50;55.90;;;;;;495303;240;1076;-43
2021/08/28 10:06:56;;;;;;;;;;;24.50;55.90;;;;;;494925;240;1190;-43
2021/08/28 10:08:57;;;;;;;;;;;24.50;55.80;;;;;;495016;240;1040;-43
2021/08/28 10:10:58;;;;;;;;;;;24.50;55.80;;;;;;494970;240;1138;-43
2021/08/28 10:13:00;;;;;;;;;;;24.50;55.80;;;;;;494991;240;1340;-43
2021/08/28 10:15:01;;;;;;;;;;;24.50;55.70;;;;;;495136;240;2187;-43
2021/08/28 10:17:02;;;;;;;;;;;24.50;55.70;;;;;;495005;240;1194;-43
2021/08/28 10:19:04;;;;;;;;;;;24.50;55.70;;;;;;495199;240;1054;-43
2021/08/28 10:21:05;;;;;;;;;;;24.50;55.70;;;;;;495037;240;1284;-43
2021/08/28 10:23:06;;;;;;;;;;;24.60;55.80;;;;;;495004;240;1281;-43
2021/08/28 10:25:08;;;;;;;;;;;24.50;55.70;;;;;;495189;240;1024;-43
2021/08/28 10:27:09;;;;;;;;;;;24.60;55.80;;;;;;494950;240;1259;-43
2021/08/28 10:29:13;;;;;;;;;;;24.60;55.70;;;;;;495021;240;1234;-43
2021/08/28 10:31:12;;;;;;;;;;;24.60;55.80;;;;;;495207;241;2178;-43
2021/08/28 10:33:13;;;;;;;;;;;24.60;55.80;;;;;;495012;240;1178;-43
2021/08/28 10:35:14;;;;;;;;;;;24.60;55.70;;;;;;495363;240;2115;-43
2021/08/28 10:37:16;;;;;;;;;;;24.60;55.70;;;;;;495176;240;1937;-43
2021/08/28 10:39:17;;;;;;;;;;;24.60;55.70;;;;;;495111;240;1078;-43
2021/08/28 10:41:18;;;;;;;;;;;24.60;55.80;;;;;;494882;240;1384;-43
2021/08/28 10:43:19;;;;;;;;;;;24.60;55.70;;;;;;495022;240;1075;-43
2021/08/28 10:45:21;;;;;;;;;;;24.60;55.70;;;;;;495033;240;1109;-43
2021/08/28 10:47:22;;;;;;;;;;;24.60;55.70;;;;;;495149;240;1159;-43
2021/08/28 10:49:24;;;;;;;;;;;24.60;55.60;;;;;;495224;240;1021;-43
2021/08/28 10:51:25;;;;;;;;;;;24.60;55.70;;;;;;495255;240;1576;-43
2021/08/28 10:53:26;;;;;;;;;;;24.70;55.70;;;;;;495011;240;1119;-43
2021/08/28 10:55:27;;;;;;;;;;;24.60;55.70;;;;;;495298;240;2198;-43
2021/08/28 10:57:29;;;;;;;;;;;24.70;55.70;;;;;;494890;240;1251;-43
2021/08/28 10:59:30;;;;;;;;;;;24.70;55.70;;;;;;495249;240;1169;-43
2021/08/28 11:01:31;;;;;;;;;;;24.70;55.80;;;;;;494905;240;1129;-43
2021/08/28 11:03:33;;;;;;;;;;;24.70;55.70;;;;;;495042;240;1025;-43
2021/08/28 11:05:34;;;;;;;;;;;24.70;55.70;;;;;;495348;240;1071;-43
2021/08/28 11:07:35;;;;;;;;;;;24.70;55.70;;;;;;495026;240;1256;-43
2021/08/28 11:09:37;;;;;;;;;;;24.70;55.70;;;;;;495560;240;1081;-43
2021/08/28 11:11:39;;;;;;;;;;;24.70;55.70;;;;;;495022;240;1165;-43
2021/08/28 11:13:39;;;;;;;;;;;24.70;55.60;;;;;;494977;241;2166;-43
2021/08/28 11:15:41;;;;;;;;;;;24.70;55.70;;;;;;495033;240;2173;-43
2021/08/28 11:17:42;;;;;;;;;;;24.70;55.70;;;;;;495148;240;1216;-43
2021/08/28 11:19:43;;;;;;;;;;;24.70;55.60;;;;;;494975;240;1072;-43
2021/08/28 11:21:45;;;;;;;;;;;24.70;55.60;;;;;;495143;239;1416;-43
2021/08/28 11:23:47;;;;;;;;;;;24.80;55.70;;;;;;495352;240;1222;-43
2021/08/28 11:25:48;;;;;;;;;;;24.80;55.70;;;;;;495206;240;1143;-43
2021/08/28 11:27:49;;;;;;;;;;;24.70;55.60;;;;;;495502;240;1150;-43
2021/08/28 11:29:51;;;;;;;;;;;24.80;55.70;;;;;;494979;240;1173;-43
2021/08/28 11:31:52;;;;;;;;;;;24.80;55.70;;;;;;495167;240;1163;-43
2021/08/28 11:33:53;;;;;;;;;;;24.80;55.70;;;;;;495463;240;1053;-43
2021/08/28 11:35:54;;;;;;;;;;;24.80;55.70;;;;;;495083;240;2139;-43
2021/08/28 11:37:56;;;;;;;;;;;24.80;55.70;;;;;;495018;240;1093;-43
2021/08/28 11:39:57;;;;;;;;;;;24.80;55.70;;;;;;495080;240;1105;-43
2021/08/28 11:41:59;;;;;;;;;;;24.80;55.60;;;;;;495084;240;1169;-43
2021/08/28 11:44:00;;;;;;;;;;;24.80;55.60;;;;;;495441;240;1054;-43
2021/08/28 11:46:02;;;;;;;;;;;24.80;55.60;;;;;;494990;240;1665;-43
2021/08/28 11:48:03;;;;;;;;;;;24.80;55.60;;;;;;495000;240;1201;-43
2021/08/28 11:50:06;;;;;;;;;;;24.80;55.50;;;;;;495062;240;1131;-43
2021/08/28 11:52:06;;;;;;;;;;;24.80;55.60;;;;;;494999;240;2186;-43
2021/08/28 11:54:10;;;;;;;;;;;24.80;55.60;;;;;;494990;240;1051;-43
2021/08/28 11:56:08;;;;;;;;;;;24.80;55.60;;;;;;494734;241;2143;-43